Terminal Aerodrome Forecast
Issued by NWS Grand Junction, CO

Home | Current Version | Previous Version | Text Only | Print | Product List | Glossary On
Versions: 1 2 3 4 5 6 7 8 9 10 11 12 13 14
000
FTUS45 KGJT 270533
TAFGJT
TAF
KGJT 270533Z 2706/2806 30012KT P6SM BKN150
     FM271000 03008KT P6SM SCT200
     FM271530 31005KT P6SM SCT200
     FM272200 32009G18KT P6SM SCT200=

USA.gov is the U.S. government's official web portal to all federal, state and local government web resources and services.